sensor_id;sensor_type;location;lat;lon;timestamp;temperature;humidity
70534;SHT31;58088;51.186;17.130;2023-09-12T00:00:56;18.30;69.16
70534;SHT31;58088;51.186;17.130;2023-09-12T00:03:23;18.30;69.15
70534;SHT31;58088;51.186;17.130;2023-09-12T00:05:53;18.29;69.24
70534;SHT31;58088;51.186;17.130;2023-09-12T00:08:22;18.26;69.33
70534;SHT31;58088;51.186;17.130;2023-09-12T00:13:51;18.19;69.28
70534;SHT31;58088;51.186;17.130;2023-09-12T00:16:17;18.16;69.35
70534;SHT31;58088;51.186;17.130;2023-09-12T00:18:44;18.15;69.12
70534;SHT31;58088;51.186;17.130;2023-09-12T00:21:10;18.13;69.37
70534;SHT31;58088;51.186;17.130;2023-09-12T00:23:37;18.11;69.51
70534;SHT31;58088;51.186;17.130;2023-09-12T00:26:03;18.08;69.66
70534;SHT31;58088;51.186;17.130;2023-09-12T00:28:29;18.03;69.87
70534;SHT31;58088;51.186;17.130;2023-09-12T00:30:55;18.03;69.86
70534;SHT31;58088;51.186;17.130;2023-09-12T00:33:22;18.03;69.64
70534;SHT31;58088;51.186;17.130;2023-09-12T00:35:48;18.00;69.62
70534;SHT31;58088;51.186;17.130;2023-09-12T00:38:14;17.98;69.47
70534;SHT31;58088;51.186;17.130;2023-09-12T00:40:40;17.94;69.46
70534;SHT31;58088;51.186;17.130;2023-09-12T00:43:07;17.90;69.66
70534;SHT31;58088;51.186;17.130;2023-09-12T00:45:34;17.88;69.53
70534;SHT31;58088;51.186;17.130;2023-09-12T00:48:01;17.87;69.54
70534;SHT31;58088;51.186;17.130;2023-09-12T00:50:31;17.83;69.31
70534;SHT31;58088;51.186;17.130;2023-09-12T00:52:59;17.83;69.60
70534;SHT31;58088;51.186;17.130;2023-09-12T00:55:29;17.81;69.82
70534;SHT31;58088;51.186;17.130;2023-09-12T00:57:58;17.77;70.00
70534;SHT31;58088;51.186;17.130;2023-09-12T01:00:27;17.73;70.10
70534;SHT31;58088;51.186;17.130;2023-09-12T01:02:56;17.72;69.84
70534;SHT31;58088;51.186;17.130;2023-09-12T01:05:24;17.72;69.72
70534;SHT31;58088;51.186;17.130;2023-09-12T01:07:53;17.70;69.77
70534;SHT31;58088;51.186;17.130;2023-09-12T01:10:21;17.71;69.86
70534;SHT31;58088;51.186;17.130;2023-09-12T01:12:47;17.69;69.93
70534;SHT31;58088;51.186;17.130;2023-09-12T01:15:14;17.64;70.03
70534;SHT31;58088;51.186;17.130;2023-09-12T01:17:43;17.62;70.11
70534;SHT31;58088;51.186;17.130;2023-09-12T01:20:13;17.57;70.26
70534;SHT31;58088;51.186;17.130;2023-09-12T01:22:55;17.54;70.38
70534;SHT31;58088;51.186;17.130;2023-09-12T01:28:23;17.54;70.15
70534;SHT31;58088;51.186;17.130;2023-09-12T01:30:51;17.53;69.91
70534;SHT31;58088;51.186;17.130;2023-09-12T01:33:18;17.51;69.90
70534;SHT31;58088;51.186;17.130;2023-09-12T01:35:46;17.51;70.06
70534;SHT31;58088;51.186;17.130;2023-09-12T01:38:13;17.50;70.07
70534;SHT31;58088;51.186;17.130;2023-09-12T01:40:48;17.49;70.04
70534;SHT31;58088;51.186;17.130;2023-09-12T01:43:18;17.48;69.93
70534;SHT31;58088;51.186;17.130;2023-09-12T01:45:48;17.43;69.99
70534;SHT31;58088;51.186;17.130;2023-09-12T01:48:22;17.41;70.02
70534;SHT31;58088;51.186;17.130;2023-09-12T01:50:56;17.40;69.99
70534;SHT31;58088;51.186;17.130;2023-09-12T01:53:23;17.39;69.87
70534;SHT31;58088;51.186;17.130;2023-09-12T01:55:49;17.40;69.69
70534;SHT31;58088;51.186;17.130;2023-09-12T01:58:16;17.36;69.71
70534;SHT31;58088;51.186;17.130;2023-09-12T02:00:43;17.35;69.78
70534;SHT31;58088;51.186;17.130;2023-09-12T02:03:27;17.33;69.85
70534;SHT31;58088;51.186;17.130;2023-09-12T02:05:53;17.30;69.79
70534;SHT31;58088;51.186;17.130;2023-09-12T02:08:20;17.29;69.77
70534;SHT31;58088;51.186;17.130;2023-09-12T02:10:46;17.26;69.86
70534;SHT31;58088;51.186;17.130;2023-09-12T02:13:12;17.23;69.94
70534;SHT31;58088;51.186;17.130;2023-09-12T02:15:39;17.21;70.10
70534;SHT31;58088;51.186;17.130;2023-09-12T02:18:05;17.19;70.22
70534;SHT31;58088;51.186;17.130;2023-09-12T02:20:32;17.17;70.30
70534;SHT31;58088;51.186;17.130;2023-09-12T02:22:58;17.16;70.45
70534;SHT31;58088;51.186;17.130;2023-09-12T02:25:24;17.13;70.46
70534;SHT31;58088;51.186;17.130;2023-09-12T02:27:50;17.12;70.42
70534;SHT31;58088;51.186;17.130;2023-09-12T02:30:16;17.09;70.49
70534;SHT31;58088;51.186;17.130;2023-09-12T02:32:43;17.05;70.39
70534;SHT31;58088;51.186;17.130;2023-09-12T02:35:09;17.03;70.46
70534;SHT31;58088;51.186;17.130;2023-09-12T02:37:35;17.02;70.66
70534;SHT31;58088;51.186;17.130;2023-09-12T02:40:04;17.00;70.83
70534;SHT31;58088;51.186;17.130;2023-09-12T02:42:32;16.99;70.93
70534;SHT31;58088;51.186;17.130;2023-09-12T02:44:58;16.96;71.14
70534;SHT31;58088;51.186;17.130;2023-09-12T02:47:24;16.96;71.17
70534;SHT31;58088;51.186;17.130;2023-09-12T02:49:50;16.96;71.03
70534;SHT31;58088;51.186;17.130;2023-09-12T02:52:17;16.94;70.99
70534;SHT31;58088;51.186;17.130;2023-09-12T02:54:43;16.93;70.81
70534;SHT31;58088;51.186;17.130;2023-09-12T02:57:09;16.92;70.84
70534;SHT31;58088;51.186;17.130;2023-09-12T02:59:35;16.90;71.03
70534;SHT31;58088;51.186;17.130;2023-09-12T03:02:02;16.87;71.11
70534;SHT31;58088;51.186;17.130;2023-09-12T03:04:29;16.86;71.05
70534;SHT31;58088;51.186;17.130;2023-09-12T03:06:56;16.86;70.93
70534;SHT31;58088;51.186;17.130;2023-09-12T03:09:23;16.83;70.87
70534;SHT31;58088;51.186;17.130;2023-09-12T03:11:50;16.81;70.67
70534;SHT31;58088;51.186;17.130;2023-09-12T03:14:16;16.80;70.48
70534;SHT31;58088;51.186;17.130;2023-09-12T03:16:42;16.78;70.47
70534;SHT31;58088;51.186;17.130;2023-09-12T03:19:09;16.77;70.42
70534;SHT31;58088;51.186;17.130;2023-09-12T03:21:36;16.76;70.29
70534;SHT31;58088;51.186;17.130;2023-09-12T03:24:02;16.76;70.13
70534;SHT31;58088;51.186;17.130;2023-09-12T03:26:29;16.76;70.10
70534;SHT31;58088;51.186;17.130;2023-09-12T03:28:55;16.70;70.22
70534;SHT31;58088;51.186;17.130;2023-09-12T03:31:22;16.67;70.38
70534;SHT31;58088;51.186;17.130;2023-09-12T03:33:48;16.65;70.40
70534;SHT31;58088;51.186;17.130;2023-09-12T03:36:16;16.61;70.50
70534;SHT31;58088;51.186;17.130;2023-09-12T03:38:44;16.58;70.64
70534;SHT31;58088;51.186;17.130;2023-09-12T03:41:10;16.58;70.63
70534;SHT31;58088;51.186;17.130;2023-09-12T03:43:37;16.55;70.76
70534;SHT31;58088;51.186;17.130;2023-09-12T03:46:03;16.52;70.70
70534;SHT31;58088;51.186;17.130;2023-09-12T03:48:30;16.50;70.68
70534;SHT31;58088;51.186;17.130;2023-09-12T03:50:57;16.47;70.73
70534;SHT31;58088;51.186;17.130;2023-09-12T03:53:24;16.46;70.56
70534;SHT31;58088;51.186;17.130;2023-09-12T03:55:52;16.43;70.46
70534;SHT31;58088;51.186;17.130;2023-09-12T03:58:18;16.40;70.41
70534;SHT31;58088;51.186;17.130;2023-09-12T04:00:45;16.40;70.33
70534;SHT31;58088;51.186;17.130;2023-09-12T04:03:11;16.36;70.53
70534;SHT31;58088;51.186;17.130;2023-09-12T04:05:38;16.33;70.79
70534;SHT31;58088;51.186;17.130;2023-09-12T04:08:04;16.33;70.74
70534;SHT31;58088;51.186;17.130;2023-09-12T04:10:31;16.34;70.47
70534;SHT31;58088;51.186;17.130;2023-09-12T04:13:18;16.33;70.34
70534;SHT31;58088;51.186;17.130;2023-09-12T04:15:44;16.33;70.40
70534;SHT31;58088;51.186;17.130;2023-09-12T04:18:10;16.30;70.33
70534;SHT31;58088;51.186;17.130;2023-09-12T04:20:36;16.29;70.39
70534;SHT31;58088;51.186;17.130;2023-09-12T04:23:02;16.28;70.68
70534;SHT31;58088;51.186;17.130;2023-09-12T04:25:30;16.29;70.80
70534;SHT31;58088;51.186;17.130;2023-09-12T04:27:57;16.26;70.82
70534;SHT31;58088;51.186;17.130;2023-09-12T04:30:23;16.24;70.78
70534;SHT31;58088;51.186;17.130;2023-09-12T04:32:49;16.25;70.72
70534;SHT31;58088;51.186;17.130;2023-09-12T04:35:16;16.26;70.74
70534;SHT31;58088;51.186;17.130;2023-09-12T04:37:45;16.28;70.75
70534;SHT31;58088;51.186;17.130;2023-09-12T04:40:13;16.32;71.02
70534;SHT31;58088;51.186;17.130;2023-09-12T04:42:40;16.42;71.25
70534;SHT31;58088;51.186;17.130;2023-09-12T04:45:06;16.54;71.09
70534;SHT31;58088;51.186;17.130;2023-09-12T04:47:33;16.60;70.89
70534;SHT31;58088;51.186;17.130;2023-09-12T04:50:00;16.80;71.08
70534;SHT31;58088;51.186;17.130;2023-09-12T04:52:27;17.06;70.61
70534;SHT31;58088;51.186;17.130;2023-09-12T04:54:54;17.31;70.16
70534;SHT31;58088;51.186;17.130;2023-09-12T04:57:20;17.59;69.74
70534;SHT31;58088;51.186;17.130;2023-09-12T04:59:46;17.89;69.27
70534;SHT31;58088;51.186;17.130;2023-09-12T05:02:12;18.23;68.65
70534;SHT31;58088;51.186;17.130;2023-09-12T05:04:38;18.48;68.19
70534;SHT31;58088;51.186;17.130;2023-09-12T05:07:05;18.75;67.76
70534;SHT31;58088;51.186;17.130;2023-09-12T05:09:31;19.08;67.21
70534;SHT31;58088;51.186;17.130;2023-09-12T05:11:58;19.48;66.60
70534;SHT31;58088;51.186;17.130;2023-09-12T05:14:24;19.78;65.98
70534;SHT31;58088;51.186;17.130;2023-09-12T05:16:50;20.07;65.62
70534;SHT31;58088;51.186;17.130;2023-09-12T05:19:16;20.34;65.16
70534;SHT31;58088;51.186;17.130;2023-09-12T05:21:43;20.66;64.67
70534;SHT31;58088;51.186;17.130;2023-09-12T05:24:10;20.99;63.94
70534;SHT31;58088;51.186;17.130;2023-09-12T05:26:36;21.27;63.31
70534;SHT31;58088;51.186;17.130;2023-09-12T05:29:02;21.59;62.85
70534;SHT31;58088;51.186;17.130;2023-09-12T05:31:29;21.91;62.32
70534;SHT31;58088;51.186;17.130;2023-09-12T05:33:55;22.24;61.67
70534;SHT31;58088;51.186;17.130;2023-09-12T05:36:21;22.55;61.11
70534;SHT31;58088;51.186;17.130;2023-09-12T05:38:47;22.91;60.54
70534;SHT31;58088;51.186;17.130;2023-09-12T05:41:14;23.24;59.98
70534;SHT31;58088;51.186;17.130;2023-09-12T05:43:40;23.58;59.47
70534;SHT31;58088;51.186;17.130;2023-09-12T05:46:06;23.90;58.94
70534;SHT31;58088;51.186;17.130;2023-09-12T05:48:32;24.25;58.41
70534;SHT31;58088;51.186;17.130;2023-09-12T05:50:59;24.57;57.88
70534;SHT31;58088;51.186;17.130;2023-09-12T05:53:25;24.84;57.32
70534;SHT31;58088;51.186;17.130;2023-09-12T05:55:51;25.13;56.85
70534;SHT31;58088;51.186;17.130;2023-09-12T05:58:18;25.48;56.26
70534;SHT31;58088;51.186;17.130;2023-09-12T06:00:44;25.84;55.43
70534;SHT31;58088;51.186;17.130;2023-09-12T06:03:14;26.19;54.76
70534;SHT31;58088;51.186;17.130;2023-09-12T06:05:41;26.55;54.29
70534;SHT31;58088;51.186;17.130;2023-09-12T06:08:08;26.79;53.47
70534;SHT31;58088;51.186;17.130;2023-09-12T06:10:34;27.07;53.03
70534;SHT31;58088;51.186;17.130;2023-09-12T06:13:00;27.33;52.69
70534;SHT31;58088;51.186;17.130;2023-09-12T06:15:26;27.60;52.16
70534;SHT31;58088;51.186;17.130;2023-09-12T06:17:52;27.82;51.80
70534;SHT31;58088;51.186;17.130;2023-09-12T06:20:19;28.09;51.31
70534;SHT31;58088;51.186;17.130;2023-09-12T06:22:45;28.32;51.03
70534;SHT31;58088;51.186;17.130;2023-09-12T06:25:12;28.58;50.27
70534;SHT31;58088;51.186;17.130;2023-09-12T06:27:38;28.80;50.05
70534;SHT31;58088;51.186;17.130;2023-09-12T06:30:04;29.04;49.66
70534;SHT31;58088;51.186;17.130;2023-09-12T06:32:32;29.28;49.22
70534;SHT31;58088;51.186;17.130;2023-09-12T06:34:58;29.46;48.76
70534;SHT31;58088;51.186;17.130;2023-09-12T06:37:24;29.51;48.50
70534;SHT31;58088;51.186;17.130;2023-09-12T06:39:50;29.56;48.25
70534;SHT31;58088;51.186;17.130;2023-09-12T06:42:17;29.52;48.24
70534;SHT31;58088;51.186;17.130;2023-09-12T06:44:43;29.53;48.13
70534;SHT31;58088;51.186;17.130;2023-09-12T06:47:09;29.64;48.24
70534;SHT31;58088;51.186;17.130;2023-09-12T06:49:36;29.76;47.98
70534;SHT31;58088;51.186;17.130;2023-09-12T06:52:03;29.89;47.69
70534;SHT31;58088;51.186;17.130;2023-09-12T06:54:30;30.03;47.35
70534;SHT31;58088;51.186;17.130;2023-09-12T06:56:56;30.17;47.06
70534;SHT31;58088;51.186;17.130;2023-09-12T06:59:22;30.30;46.97
70534;SHT31;58088;51.186;17.130;2023-09-12T07:01:49;30.42;46.67
70534;SHT31;58088;51.186;17.130;2023-09-12T07:04:15;30.49;46.40
70534;SHT31;58088;51.186;17.130;2023-09-12T07:06:41;30.51;46.23
70534;SHT31;58088;51.186;17.130;2023-09-12T07:09:08;30.57;45.97
70534;SHT31;58088;51.186;17.130;2023-09-12T07:11:34;30.65;45.63
70534;SHT31;58088;51.186;17.130;2023-09-12T07:14:00;30.55;45.25
70534;SHT31;58088;51.186;17.130;2023-09-12T07:16:30;30.42;45.37
70534;SHT31;58088;51.186;17.130;2023-09-12T07:18:57;30.42;45.47
70534;SHT31;58088;51.186;17.130;2023-09-12T07:21:23;30.34;45.37
70534;SHT31;58088;51.186;17.130;2023-09-12T07:23:50;30.23;45.38
70534;SHT31;58088;51.186;17.130;2023-09-12T07:26:16;30.21;45.28
70534;SHT31;58088;51.186;17.130;2023-09-12T07:28:42;30.24;45.42
70534;SHT31;58088;51.186;17.130;2023-09-12T07:31:08;30.38;45.33
70534;SHT31;58088;51.186;17.130;2023-09-12T07:33:35;30.37;45.12
70534;SHT31;58088;51.186;17.130;2023-09-12T07:36:01;30.24;45.07
70534;SHT31;58088;51.186;17.130;2023-09-12T07:38:28;30.11;45.35
70534;SHT31;58088;51.186;17.130;2023-09-12T07:40:56;30.15;45.64
70534;SHT31;58088;51.186;17.130;2023-09-12T07:43:23;30.22;45.72
70534;SHT31;58088;51.186;17.130;2023-09-12T07:45:54;30.22;45.49
70534;SHT31;58088;51.186;17.130;2023-09-12T07:48:22;30.08;45.47
70534;SHT31;58088;51.186;17.130;2023-09-12T07:50:48;30.03;45.28
70534;SHT31;58088;51.186;17.130;2023-09-12T07:53:14;30.01;45.15
70534;SHT31;58088;51.186;17.130;2023-09-12T07:55:40;29.97;45.66
70534;SHT31;58088;51.186;17.130;2023-09-12T07:58:14;30.01;45.52
70534;SHT31;58088;51.186;17.130;2023-09-12T08:00:44;29.95;45.67
70534;SHT31;58088;51.186;17.130;2023-09-12T08:03:20;30.01;45.84
70534;SHT31;58088;51.186;17.130;2023-09-12T08:05:55;30.10;45.45
70534;SHT31;58088;51.186;17.130;2023-09-12T08:08:23;30.12;45.59
70534;SHT31;58088;51.186;17.130;2023-09-12T08:10:49;30.15;45.50
70534;SHT31;58088;51.186;17.130;2023-09-12T08:13:15;30.09;45.43
70534;SHT31;58088;51.186;17.130;2023-09-12T08:15:41;30.02;45.40
70534;SHT31;58088;51.186;17.130;2023-09-12T08:18:07;30.05;45.44
70534;SHT31;58088;51.186;17.130;2023-09-12T08:20:34;30.11;45.64
70534;SHT31;58088;51.186;17.130;2023-09-12T08:23:00;30.10;45.56
70534;SHT31;58088;51.186;17.130;2023-09-12T08:25:26;30.07;45.30
70534;SHT31;58088;51.186;17.130;2023-09-12T08:27:52;29.99;45.63
70534;SHT31;58088;51.186;17.130;2023-09-12T08:30:19;29.95;45.85
70534;SHT31;58088;51.186;17.130;2023-09-12T08:32:45;29.96;46.02
70534;SHT31;58088;51.186;17.130;2023-09-12T08:35:11;29.99;45.99
70534;SHT31;58088;51.186;17.130;2023-09-12T08:37:40;30.03;46.29
70534;SHT31;58088;51.186;17.130;2023-09-12T08:40:08;30.04;45.99
70534;SHT31;58088;51.186;17.130;2023-09-12T08:42:40;30.02;45.71
70534;SHT31;58088;51.186;17.130;2023-09-12T08:45:18;29.98;45.81
70534;SHT31;58088;51.186;17.130;2023-09-12T08:47:50;29.99;45.84
70534;SHT31;58088;51.186;17.130;2023-09-12T08:50:19;30.08;46.04
70534;SHT31;58088;51.186;17.130;2023-09-12T08:52:48;30.16;45.75
70534;SHT31;58088;51.186;17.130;2023-09-12T08:55:15;30.15;45.66
70534;SHT31;58088;51.186;17.130;2023-09-12T08:57:41;30.22;45.62
70534;SHT31;58088;51.186;17.130;2023-09-12T09:00:10;30.29;45.51
70534;SHT31;58088;51.186;17.130;2023-09-12T09:02:39;30.34;45.60
70534;SHT31;58088;51.186;17.130;2023-09-12T09:05:08;30.37;45.67
70534;SHT31;58088;51.186;17.130;2023-09-12T09:07:40;30.39;45.51
70534;SHT31;58088;51.186;17.130;2023-09-12T09:10:16;30.49;45.83
70534;SHT31;58088;51.186;17.130;2023-09-12T09:12:44;30.65;45.75
70534;SHT31;58088;51.186;17.130;2023-09-12T09:15:25;30.69;45.43
70534;SHT31;58088;51.186;17.130;2023-09-12T09:17:53;30.76;45.74
70534;SHT31;58088;51.186;17.130;2023-09-12T09:22:59;31.13;45.68
70534;SHT31;58088;51.186;17.130;2023-09-12T09:25:32;31.28;44.60
70534;SHT31;58088;51.186;17.130;2023-09-12T09:28:03;31.36;43.88
70534;SHT31;58088;51.186;17.130;2023-09-12T09:30:40;31.36;43.97
70534;SHT31;58088;51.186;17.130;2023-09-12T09:33:10;31.43;43.64
70534;SHT31;58088;51.186;17.130;2023-09-12T09:35:40;31.51;43.38
70534;SHT31;58088;51.186;17.130;2023-09-12T09:38:08;31.61;43.72
70534;SHT31;58088;51.186;17.130;2023-09-12T09:40:35;31.76;44.11
70534;SHT31;58088;51.186;17.130;2023-09-12T09:43:02;31.83;43.76
70534;SHT31;58088;51.186;17.130;2023-09-12T09:45:30;31.84;43.41
70534;SHT31;58088;51.186;17.130;2023-09-12T09:48:06;31.89;43.01
70534;SHT31;58088;51.186;17.130;2023-09-12T09:50:35;31.92;43.36
70534;SHT31;58088;51.186;17.130;2023-09-12T09:53:04;31.95;42.84
70534;SHT31;58088;51.186;17.130;2023-09-12T09:55:34;31.99;42.96
70534;SHT31;58088;51.186;17.130;2023-09-12T09:58:00;32.12;42.97
70534;SHT31;58088;51.186;17.130;2023-09-12T10:00:28;32.23;42.84
70534;SHT31;58088;51.186;17.130;2023-09-12T10:02:59;32.16;41.82
70534;SHT31;58088;51.186;17.130;2023-09-12T10:05:30;32.12;42.24
70534;SHT31;58088;51.186;17.130;2023-09-12T10:07:59;32.15;42.41
70534;SHT31;58088;51.186;17.130;2023-09-12T10:10:31;32.14;43.32
70534;SHT31;58088;51.186;17.130;2023-09-12T10:13:00;32.22;43.17
70534;SHT31;58088;51.186;17.130;2023-09-12T10:15:29;32.30;41.71
70534;SHT31;58088;51.186;17.130;2023-09-12T10:17:57;32.35;41.78
70534;SHT31;58088;51.186;17.130;2023-09-12T10:20:42;32.41;41.95
70534;SHT31;58088;51.186;17.130;2023-09-12T10:25:50;32.42;41.84
70534;SHT31;58088;51.186;17.130;2023-09-12T10:28:17;32.47;41.99
70534;SHT31;58088;51.186;17.130;2023-09-12T10:30:44;32.54;43.10
70534;SHT31;58088;51.186;17.130;2023-09-12T10:33:12;32.62;42.56
70534;SHT31;58088;51.186;17.130;2023-09-12T10:35:40;32.67;42.24
70534;SHT31;58088;51.186;17.130;2023-09-12T10:38:10;32.74;41.00
70534;SHT31;58088;51.186;17.130;2023-09-12T10:40:40;32.78;40.56
70534;SHT31;58088;51.186;17.130;2023-09-12T10:43:07;32.86;40.65
70534;SHT31;58088;51.186;17.130;2023-09-12T10:45:36;32.90;39.49
70534;SHT31;58088;51.186;17.130;2023-09-12T10:48:03;32.96;39.02
70534;SHT31;58088;51.186;17.130;2023-09-12T10:50:30;33.03;37.93
70534;SHT31;58088;51.186;17.130;2023-09-12T10:53:07;33.10;37.58
70534;SHT31;58088;51.186;17.130;2023-09-12T10:55:38;33.14;37.94
70534;SHT31;58088;51.186;17.130;2023-09-12T10:58:05;33.19;38.53
70534;SHT31;58088;51.186;17.130;2023-09-12T11:00:36;33.21;37.72
70534;SHT31;58088;51.186;17.130;2023-09-12T11:06:05;33.13;35.90
70534;SHT31;58088;51.186;17.130;2023-09-12T11:11:55;33.06;35.49
70534;SHT31;58088;51.186;17.130;2023-09-12T11:14:28;33.05;34.90
70534;SHT31;58088;51.186;17.130;2023-09-12T11:22:47;33.14;35.92
70534;SHT31;58088;51.186;17.130;2023-09-12T11:25:21;33.19;35.72
70534;SHT31;58088;51.186;17.130;2023-09-12T11:32:46;33.29;35.08
70534;SHT31;58088;51.186;17.130;2023-09-12T11:35:16;33.34;35.62
70534;SHT31;58088;51.186;17.130;2023-09-12T11:37:48;33.35;35.45
70534;SHT31;58088;51.186;17.130;2023-09-12T11:40:17;33.46;34.90
70534;SHT31;58088;51.186;17.130;2023-09-12T11:42:53;33.47;35.30
70534;SHT31;58088;51.186;17.130;2023-09-12T11:45:19;33.41;35.31
70534;SHT31;58088;51.186;17.130;2023-09-12T11:47:47;33.41;36.30
70534;SHT31;58088;51.186;17.130;2023-09-12T11:50:30;33.40;35.60
70534;SHT31;58088;51.186;17.130;2023-09-12T11:53:11;33.45;34.64
70534;SHT31;58088;51.186;17.130;2023-09-12T11:55:42;33.48;34.80
70534;SHT31;58088;51.186;17.130;2023-09-12T11:58:15;33.49;33.84
70534;SHT31;58088;51.186;17.130;2023-09-12T12:00:47;33.47;33.54
70534;SHT31;58088;51.186;17.130;2023-09-12T12:03:16;33.48;33.44
70534;SHT31;58088;51.186;17.130;2023-09-12T12:05:46;33.46;33.25
70534;SHT31;58088;51.186;17.130;2023-09-12T12:08:13;33.44;33.28
70534;SHT31;58088;51.186;17.130;2023-09-12T12:10:42;33.43;33.25
70534;SHT31;58088;51.186;17.130;2023-09-12T12:13:16;33.49;33.59
70534;SHT31;58088;51.186;17.130;2023-09-12T12:15:44;33.52;34.28
70534;SHT31;58088;51.186;17.130;2023-09-12T12:18:11;33.44;33.89
70534;SHT31;58088;51.186;17.130;2023-09-12T12:20:37;33.35;33.36
70534;SHT31;58088;51.186;17.130;2023-09-12T12:23:04;33.31;33.14
70534;SHT31;58088;51.186;17.130;2023-09-12T12:25:33;33.29;33.29
70534;SHT31;58088;51.186;17.130;2023-09-12T12:28:04;33.28;33.36
70534;SHT31;58088;51.186;17.130;2023-09-12T12:30:30;33.32;34.66
70534;SHT31;58088;51.186;17.130;2023-09-12T12:33:06;33.34;34.33
70534;SHT31;58088;51.186;17.130;2023-09-12T12:35:34;33.35;34.00
70534;SHT31;58088;51.186;17.130;2023-09-12T12:38:02;33.30;34.12
70534;SHT31;58088;51.186;17.130;2023-09-12T12:40:29;33.25;33.67
70534;SHT31;58088;51.186;17.130;2023-09-12T12:42:56;33.22;33.28
70534;SHT31;58088;51.186;17.130;2023-09-12T12:45:22;33.19;33.40
70534;SHT31;58088;51.186;17.130;2023-09-12T12:47:57;33.16;33.81
70534;SHT31;58088;51.186;17.130;2023-09-12T12:50:26;33.13;33.95
70534;SHT31;58088;51.186;17.130;2023-09-12T12:52:53;33.12;34.15
70534;SHT31;58088;51.186;17.130;2023-09-12T12:55:20;33.13;34.38
70534;SHT31;58088;51.186;17.130;2023-09-12T12:57:51;33.11;35.46
70534;SHT31;58088;51.186;17.130;2023-09-12T13:00:17;33.07;36.13
70534;SHT31;58088;51.186;17.130;2023-09-12T13:02:44;32.94;35.60
70534;SHT31;58088;51.186;17.130;2023-09-12T13:05:27;32.87;35.85
70534;SHT31;58088;51.186;17.130;2023-09-12T13:07:58;32.79;35.60
70534;SHT31;58088;51.186;17.130;2023-09-12T13:10:24;32.76;35.67
70534;SHT31;58088;51.186;17.130;2023-09-12T13:12:51;32.74;36.62
70534;SHT31;58088;51.186;17.130;2023-09-12T13:15:17;32.72;36.67
70534;SHT31;58088;51.186;17.130;2023-09-12T13:17:44;32.73;37.29
70534;SHT31;58088;51.186;17.130;2023-09-12T13:20:10;32.69;36.55
70534;SHT31;58088;51.186;17.130;2023-09-12T13:22:37;32.67;36.94
70534;SHT31;58088;51.186;17.130;2023-09-12T13:25:06;32.66;36.49
70534;SHT31;58088;51.186;17.130;2023-09-12T13:27:33;32.67;35.94
70534;SHT31;58088;51.186;17.130;2023-09-12T13:29:59;32.61;36.98
70534;SHT31;58088;51.186;17.130;2023-09-12T13:32:25;32.59;36.58
70534;SHT31;58088;51.186;17.130;2023-09-12T13:34:52;32.57;36.24
70534;SHT31;58088;51.186;17.130;2023-09-12T13:37:19;32.60;35.89
70534;SHT31;58088;51.186;17.130;2023-09-12T13:39:46;32.62;35.38
70534;SHT31;58088;51.186;17.130;2023-09-12T13:42:15;32.67;35.22
70534;SHT31;58088;51.186;17.130;2023-09-12T13:44:46;32.71;36.22
70534;SHT31;58088;51.186;17.130;2023-09-12T13:47:14;32.65;36.90
70534;SHT31;58088;51.186;17.130;2023-09-12T13:49:46;32.65;36.65
70534;SHT31;58088;51.186;17.130;2023-09-12T13:52:13;32.67;37.01
70534;SHT31;58088;51.186;17.130;2023-09-12T13:54:40;32.69;37.27
70534;SHT31;58088;51.186;17.130;2023-09-12T13:57:06;32.71;36.88
70534;SHT31;58088;51.186;17.130;2023-09-12T13:59:33;32.73;36.09
70534;SHT31;58088;51.186;17.130;2023-09-12T14:02:00;32.74;37.07
70534;SHT31;58088;51.186;17.130;2023-09-12T14:04:26;32.73;36.13
70534;SHT31;58088;51.186;17.130;2023-09-12T14:06:53;32.70;36.02
70534;SHT31;58088;51.186;17.130;2023-09-12T14:09:20;32.67;36.29
70534;SHT31;58088;51.186;17.130;2023-09-12T14:11:47;32.67;35.58
70534;SHT31;58088;51.186;17.130;2023-09-12T14:14:14;32.64;35.72
70534;SHT31;58088;51.186;17.130;2023-09-12T14:16:46;32.62;35.85
70534;SHT31;58088;51.186;17.130;2023-09-12T14:19:13;32.59;35.40
70534;SHT31;58088;51.186;17.130;2023-09-12T14:21:40;32.61;35.94
70534;SHT31;58088;51.186;17.130;2023-09-12T14:24:08;32.63;36.96
70534;SHT31;58088;51.186;17.130;2023-09-12T14:26:35;32.65;35.82
70534;SHT31;58088;51.186;17.130;2023-09-12T14:29:02;32.64;36.84
70534;SHT31;58088;51.186;17.130;2023-09-12T14:31:29;32.63;35.98
70534;SHT31;58088;51.186;17.130;2023-09-12T14:33:56;32.53;37.68
70534;SHT31;58088;51.186;17.130;2023-09-12T14:36:24;32.44;37.81
70534;SHT31;58088;51.186;17.130;2023-09-12T14:38:50;32.43;38.34
70534;SHT31;58088;51.186;17.130;2023-09-12T14:41:18;32.40;37.41
70534;SHT31;58088;51.186;17.130;2023-09-12T14:43:45;32.37;36.95
70534;SHT31;58088;51.186;17.130;2023-09-12T14:46:12;32.35;37.51
70534;SHT31;58088;51.186;17.130;2023-09-12T14:48:58;32.34;35.83
70534;SHT31;58088;51.186;17.130;2023-09-12T14:51:24;32.29;37.20
70534;SHT31;58088;51.186;17.130;2023-09-12T14:53:51;32.23;37.42
70534;SHT31;58088;51.186;17.130;2023-09-12T14:56:18;32.17;35.89
70534;SHT31;58088;51.186;17.130;2023-09-12T14:58:45;32.14;35.64
70534;SHT31;58088;51.186;17.130;2023-09-12T15:01:12;32.14;35.88
70534;SHT31;58088;51.186;17.130;2023-09-12T15:03:39;32.12;36.26
70534;SHT31;58088;51.186;17.130;2023-09-12T15:06:06;32.14;35.60
70534;SHT31;58088;51.186;17.130;2023-09-12T15:08:33;32.14;34.98
70534;SHT31;58088;51.186;17.130;2023-09-12T15:11:02;32.14;35.48
70534;SHT31;58088;51.186;17.130;2023-09-12T15:13:29;32.14;35.31
70534;SHT31;58088;51.186;17.130;2023-09-12T15:15:56;32.14;35.76
70534;SHT31;58088;51.186;17.130;2023-09-12T15:18:23;32.12;36.33
70534;SHT31;58088;51.186;17.130;2023-09-12T15:20:51;32.06;35.71
70534;SHT31;58088;51.186;17.130;2023-09-12T15:23:19;32.01;36.23
70534;SHT31;58088;51.186;17.130;2023-09-12T15:25:50;31.97;37.08
70534;SHT31;58088;51.186;17.130;2023-09-12T15:28:17;31.92;38.74
70534;SHT31;58088;51.186;17.130;2023-09-12T15:30:44;31.91;40.05
70534;SHT31;58088;51.186;17.130;2023-09-12T15:33:11;31.87;39.92
70534;SHT31;58088;51.186;17.130;2023-09-12T15:35:37;31.83;40.49
70534;SHT31;58088;51.186;17.130;2023-09-12T15:38:04;31.78;40.97
70534;SHT31;58088;51.186;17.130;2023-09-12T15:40:32;31.75;41.62
70534;SHT31;58088;51.186;17.130;2023-09-12T15:42:59;31.71;41.57
70534;SHT31;58088;51.186;17.130;2023-09-12T15:45:27;31.67;42.26
70534;SHT31;58088;51.186;17.130;2023-09-12T15:47:53;31.64;42.53